Time,TemperatureF,DewpointF,PressureIn,WindDirection,WindDirectionDegrees,WindSpeedMPH,WindSpeedGustMPH,Humidity,HourlyPrecipIn,Conditions,Clouds,dailyrainin,SoftwareType,DateUTC
2013-06-11 02:12:00,58.0,27.0,-100.00,SE,141,7.0,9.0,30,-99.99,,,-99.99,,2013-06-11 09:12:00,
2013-06-11 02:22:00,58.0,27.0,-100.00,SE,141,7.0,9.0,30,-99.99,,,-99.99,,2013-06-11 09:22:00,
2013-06-11 02:33:00,59.0,25.0,-100.00,SE,142,7.0,9.0,27,-99.99,,,-99.99,,2013-06-11 09:33:00,
2013-06-11 02:43:00,60.0,24.0,-100.00,SE,130,7.0,9.0,25,-99.99,,,-99.99,,2013-06-11 09:43:00,
2013-06-11 02:53:00,60.0,23.0,-100.00,SE,130,5.0,6.0,24,-99.99,,,-99.99,,2013-06-11 09:53:00,
2013-06-11 03:03:00,60.0,23.0,-100.00,SE,144,6.0,9.0,24,-99.99,,,-99.99,,2013-06-11 10:03:00,
2013-06-11 03:12:00,60.0,23.0,-100.00,SE,144,6.0,9.0,24,-99.99,,,-99.99,,2013-06-11 10:12:00,
2013-06-11 03:22:00,60.0,23.0,-100.00,SE,144,6.0,9.0,24,-99.99,,,-99.99,,2013-06-11 10:22:00,
2013-06-11 03:33:00,60.0,23.0,-100.00,SE,144,6.0,9.0,24,-99.99,,,-99.99,,2013-06-11 10:33:00,
2013-06-11 03:42:00,62.0,23.0,-100.00,SE,124,7.0,10.0,22,-99.99,,,-99.99,,2013-06-11 10:42:00,
2013-06-11 03:52:00,62.0,23.0,-100.00,SE,124,7.0,8.0,22,-99.99,,,-99.99,,2013-06-11 10:52:00,
2013-06-11 04:02:00,62.0,23.0,-100.00,SE,124,7.0,8.0,22,-99.99,,,-99.99,,2013-06-11 11:02:00,
2013-06-11 04:12:00,58.0,23.0,-100.00,SE,125,6.0,9.0,26,-99.99,,,-99.99,,2013-06-11 11:12:00,
2013-06-11 04:21:00,59.0,23.0,-100.00,ESE,118,7.0,8.0,25,-99.99,,,-99.99,,2013-06-11 11:21:00,
2013-06-11 04:32:00,59.0,23.0,-100.00,ESE,123,7.0,8.0,25,-99.99,,,-99.99,,2013-06-11 11:32:00,
2013-06-11 04:41:00,59.0,23.0,-100.00,ESE,121,6.0,7.0,25,-99.99,,,-99.99,,2013-06-11 11:41:00,
2013-06-11 04:52:00,59.0,23.0,-100.00,ESE,121,6.0,7.0,25,-99.99,,,-99.99,,2013-06-11 11:52:00,
2013-06-11 05:02:00,59.0,23.0,-100.00,ESE,118,7.0,8.0,25,-99.99,,,-99.99,,2013-06-11 12:02:00,
2013-06-11 05:12:00,58.0,23.0,-100.00,SE,124,6.0,7.0,26,-99.99,,,-99.99,,2013-06-11 12:12:00,
2013-06-11 05:21:00,59.0,23.0,-100.00,SE,126,5.0,6.0,25,-99.99,,,-99.99,,2013-06-11 12:21:00,
2013-06-11 05:32:00,58.0,23.0,-100.00,SE,130,5.0,6.0,26,-99.99,,,-99.99,,2013-06-11 12:32:00,
2013-06-11 05:42:00,60.0,23.0,-100.00,SE,133,6.0,8.0,24,-99.99,,,-99.99,,2013-06-11 12:42:00,
2013-06-11 05:52:00,59.0,24.0,-100.00,SE,126,6.0,7.0,26,-99.99,,,-99.99,,2013-06-11 12:52:00,
2013-06-11 06:02:00,60.0,24.0,-100.00,SE,132,6.0,8.0,25,-99.99,,,-99.99,,2013-06-11 13:02:00,
2013-06-11 06:11:00,58.0,24.0,-100.00,SE,139,7.0,10.0,27,-99.99,,,-99.99,,2013-06-11 13:11:00,
2013-06-11 06:22:00,58.0,24.0,-100.00,SE,128,6.0,7.0,27,-99.99,,,-99.99,,2013-06-11 13:22:00,
2013-06-11 06:32:00,60.0,25.0,-100.00,SE,128,6.0,7.0,26,-99.99,,,-99.99,,2013-06-11 13:32:00,
2013-06-11 06:42:00,61.0,26.0,-100.00,SE,127,6.0,7.0,26,-99.99,,,-99.99,,2013-06-11 13:42:00,
2013-06-11 06:52:00,61.0,26.0,-100.00,SE,127,6.0,7.0,26,-99.99,,,-99.99,,2013-06-11 13:52:00,
2013-06-11 07:02:00,61.0,26.0,-100.00,SE,127,6.0,7.0,26,-99.99,,,-99.99,,2013-06-11 14:02:00,
2013-06-11 07:12:00,61.0,27.0,-100.00,SE,140,7.0,8.0,27,-99.99,,,-99.99,,2013-06-11 14:12:00,
2013-06-11 07:20:00,68.0,32.0,-100.00,SE,127,5.0,7.0,26,-99.99,,,-99.99,,2013-06-11 14:20:00,
2013-06-11 07:21:00,61.0,27.0,-100.00,SE,140,7.0,8.0,27,-99.99,,,-99.99,,2013-06-11 14:21:00,
2013-06-11 07:32:00,66.0,30.0,-100.00,SE,130,5.0,7.0,26,-99.99,,,-99.99,,2013-06-11 14:32:00,
2013-06-11 07:42:00,66.0,30.0,-100.00,SE,130,5.0,7.0,26,-99.99,,,-99.99,,2013-06-11 14:42:00,
2013-06-11 07:52:00,68.0,32.0,-100.00,SE,127,5.0,7.0,26,-99.99,,,-99.99,,2013-06-11 14:52:00,
2013-06-11 08:02:00,68.0,32.0,-100.00,SE,127,5.0,7.0,26,-99.99,,,-99.99,,2013-06-11 15:02:00,
2013-06-11 08:12:00,68.0,32.0,-100.00,SE,127,5.0,7.0,26,-99.99,,,-99.99,,2013-06-11 15:12:00,
2013-06-11 10:02:00,84.0,22.0,-100.00,WNW,301,5.0,8.0,10,-99.99,,,-99.99,,2013-06-11 17:02:00,
2013-06-11 10:12:00,84.0,22.0,-100.00,West,270,5.0,9.0,10,-99.99,,,-99.99,,2013-06-11 17:12:00,
2013-06-11 10:22:00,85.0,22.0,-100.00,West,270,5.0,8.0,10,-99.99,,,-99.99,,2013-06-11 17:22:00,
2013-06-11 10:32:00,85.0,22.0,-100.00,West,270,6.0,10.0,10,-99.99,,,-99.99,,2013-06-11 17:32:00,
2013-06-11 10:42:00,85.0,22.0,-100.00,West,270,6.0,10.0,10,-99.99,,,-99.99,,2013-06-11 17:42:00,
2013-06-11 10:52:00,85.0,22.0,-100.00,West,270,6.0,10.0,10,-99.99,,,-99.99,,2013-06-11 17:52:00,
2013-06-11 11:00:00,87.0,16.0,-100.00,West,275,8.0,11.0,7,-99.99,,,-99.99,,2013-06-11 18:00:00,
2013-06-11 11:02:00,86.0,21.0,-100.00,WNW,300,7.0,11.0,9,-99.99,,,-99.99,,2013-06-11 18:02:00,
2013-06-11 11:12:00,87.0,19.0,-100.00,West,276,7.0,10.0,8,-99.99,,,-99.99,,2013-06-11 18:12:00,
2013-06-11 11:22:00,87.0,16.0,-100.00,West,275,8.0,11.0,7,-99.99,,,-99.99,,2013-06-11 18:22:00,
2013-06-11 11:32:00,87.0,16.0,-100.00,West,275,8.0,11.0,7,-99.99,,,-99.99,,2013-06-11 18:32:00,
2013-06-11 11:42:00,87.0,16.0,-100.00,West,275,8.0,11.0,7,-99.99,,,-99.99,,2013-06-11 18:42:00,
2013-06-11 11:50:00,88.0,22.0,-100.00,WNW,300,9.0,13.0,9,-99.99,,,-99.99,,2013-06-11 18:50:00,
2013-06-11 11:52:00,87.0,16.0,-100.00,West,275,8.0,11.0,7,-99.99,,,-99.99,,2013-06-11 18:52:00,
2013-06-11 12:12:00,88.0,22.0,-100.00,WNW,300,9.0,13.0,9,-99.99,,,-99.99,,2013-06-11 19:12:00,
2013-06-11 12:22:00,88.0,22.0,-100.00,WNW,300,9.0,13.0,9,-99.99,,,-99.99,,2013-06-11 19:22:00,
2013-06-11 12:32:00,88.0,22.0,-100.00,WNW,300,9.0,13.0,9,-99.99,,,-99.99,,2013-06-11 19:32:00,
2013-06-11 12:42:00,88.0,22.0,-100.00,WNW,300,9.0,13.0,9,-99.99,,,-99.99,,2013-06-11 19:42:00,
2013-06-11 13:02:00,84.0,40.0,-100.00,West,279,9.0,13.0,21,-99.99,,,-99.99,,2013-06-11 20:02:00,
2013-06-11 13:12:00,85.0,39.0,-100.00,WNW,300,11.0,17.0,20,-99.99,,,-99.99,,2013-06-11 20:12:00,
2013-06-11 13:22:00,82.0,41.0,-100.00,NW,308,10.0,14.0,23,-99.99,,,-99.99,,2013-06-11 20:22:00,
2013-06-11 13:32:00,82.0,41.0,-100.00,NW,308,10.0,14.0,23,-99.99,,,-99.99,,2013-06-11 20:32:00,
2013-06-11 13:42:00,82.0,41.0,-100.00,NW,308,10.0,14.0,23,-99.99,,,-99.99,,2013-06-11 20:42:00,
2013-06-11 13:52:00,82.0,41.0,-100.00,NW,308,10.0,14.0,23,-99.99,,,-99.99,,2013-06-11 20:52:00,
2013-06-11 14:02:00,82.0,45.0,-100.00,NW,305,6.0,11.0,27,-99.99,,,-99.99,,2013-06-11 21:02:00,
2013-06-11 14:12:00,82.0,47.0,-100.00,WNW,291,7.0,12.0,29,-99.99,,,-99.99,,2013-06-11 21:12:00,
2013-06-11 14:22:00,82.0,47.0,-100.00,WNW,299,7.0,11.0,30,-99.99,,,-99.99,,2013-06-11 21:22:00,
2013-06-11 14:33:00,82.0,48.0,-100.00,NW,316,7.0,12.0,31,-99.99,,,-99.99,,2013-06-11 21:33:00,
2013-06-11 14:42:00,81.0,48.0,-100.00,WNW,282,7.0,12.0,32,-99.99,,,-99.99,,2013-06-11 21:42:00,
2013-06-11 14:52:00,81.0,49.0,-100.00,WNW,290,6.0,11.0,33,-99.99,,,-99.99,,2013-06-11 21:52:00,
2013-06-11 15:03:00,81.0,49.0,-100.00,WNW,286,6.0,8.0,33,-99.99,,,-99.99,,2013-06-11 22:03:00,
2013-06-11 15:12:00,82.0,50.0,-100.00,WNW,293,6.0,10.0,33,-99.99,,,-99.99,,2013-06-11 22:12:00,
2013-06-11 15:22:00,81.0,51.0,-100.00,WNW,296,9.0,13.0,35,-99.99,,,-99.99,,2013-06-11 22:22:00,
2013-06-11 15:32:00,81.0,51.0,-100.00,WNW,296,9.0,13.0,35,-99.99,,,-99.99,,2013-06-11 22:32:00,
2013-06-11 15:42:00,81.0,52.0,-100.00,NW,305,6.0,10.0,36,-99.99,,,-99.99,,2013-06-11 22:42:00,
2013-06-11 15:52:00,81.0,52.0,-100.00,NW,305,6.0,10.0,36,-99.99,,,-99.99,,2013-06-11 22:52:00,
2013-06-11 16:02:00,81.0,52.0,-100.00,WNW,300,6.0,11.0,36,-99.99,,,-99.99,,2013-06-11 23:02:00,
2013-06-11 16:12:00,81.0,52.0,-100.00,WNW,297,7.0,11.0,37,-99.99,,,-99.99,,2013-06-11 23:12:00,
2013-06-11 16:22:00,81.0,52.0,-100.00,WNW,296,7.0,10.0,37,-99.99,,,-99.99,,2013-06-11 23:22:00,
2013-06-11 16:32:00,79.0,52.0,-100.00,West,278,8.0,12.0,39,-99.99,,,-99.99,,2013-06-11 23:32:00,
2013-06-11 16:42:00,81.0,52.0,-100.00,WNW,294,7.0,11.0,37,-99.99,,,-99.99,,2013-06-11 23:42:00,
2013-06-11 16:52:00,82.0,52.0,-100.00,WNW,299,6.0,10.0,36,-99.99,,,-99.99,,2013-06-11 23:52:00,
2013-06-11 17:02:00,81.0,52.0,-100.00,WNW,303,8.0,12.0,37,-99.99,,,-99.99,,2013-06-12 00:02:00,
2013-06-11 17:12:00,80.0,53.0,-100.00,WNW,293,9.0,13.0,39,-99.99,,,-99.99,,2013-06-12 00:12:00,
2013-06-11 17:22:00,80.0,53.0,-100.00,NW,304,8.0,12.0,40,-99.99,,,-99.99,,2013-06-12 00:22:00,
2013-06-11 17:30:00,76.0,53.0,-100.00,NW,309,6.0,10.0,45,-99.99,,,-99.99,,2013-06-12 00:30:00,
2013-06-11 17:32:00,80.0,53.0,-100.00,NW,304,8.0,12.0,40,-99.99,,,-99.99,,2013-06-12 00:32:00,
2013-06-11 17:42:00,76.0,54.0,-100.00,WNW,290,6.0,10.0,47,-99.99,,,-99.99,,2013-06-12 00:42:00,
2013-06-11 17:52:00,76.0,53.0,-100.00,NW,309,6.0,10.0,45,-99.99,,,-99.99,,2013-06-12 00:52:00,
2013-06-11 18:02:00,76.0,53.0,-100.00,NW,309,6.0,10.0,45,-99.99,,,-99.99,,2013-06-12 01:02:00,
2013-06-11 18:11:00,76.0,53.0,-100.00,NW,309,6.0,10.0,45,-99.99,,,-99.99,,2013-06-12 01:11:00,
2013-06-11 18:21:00,76.0,53.0,-100.00,NW,309,6.0,10.0,45,-99.99,,,-99.99,,2013-06-12 01:21:00,
2013-06-11 18:42:00,76.0,54.0,-100.00,NW,308,5.0,8.0,47,-99.99,,,-99.99,,2013-06-12 01:42:00,
2013-06-11 18:52:00,76.0,54.0,-100.00,NW,308,5.0,8.0,47,-99.99,,,-99.99,,2013-06-12 01:52:00,
2013-06-11 19:00:00,73.0,54.0,-100.00,NW,307,4.0,7.0,52,-99.99,,,-99.99,,2013-06-12 02:00:00,
2013-06-11 19:02:00,76.0,54.0,-100.00,NW,308,5.0,8.0,47,-99.99,,,-99.99,,2013-06-12 02:02:00,
2013-06-11 19:12:00,76.0,54.0,-100.00,NW,308,5.0,8.0,47,-99.99,,,-99.99,,2013-06-12 02:12:00,
2013-06-11 19:22:00,74.0,54.0,-100.00,WNW,282,3.0,6.0,50,-99.99,,,-99.99,,2013-06-12 02:22:00,
2013-06-11 19:32:00,73.0,54.0,-100.00,NW,307,4.0,7.0,52,-99.99,,,-99.99,,2013-06-12 02:32:00,
2013-06-11 19:42:00,73.0,54.0,-100.00,NW,307,4.0,7.0,52,-99.99,,,-99.99,,2013-06-12 02:42:00,
2013-06-11 19:52:00,73.0,54.0,-100.00,NW,307,4.0,7.0,52,-99.99,,,-99.99,,2013-06-12 02:52:00,
2013-06-11 20:12:00,70.0,54.0,-100.00,NNW,330,2.0,3.0,57,-99.99,,,-99.99,,2013-06-12 03:12:00,
2013-06-11 20:22:00,70.0,55.0,-100.00,NNW,342,3.0,3.0,58,-99.99,,,-99.99,,2013-06-12 03:22:00,
2013-06-11 20:32:00,69.0,54.0,-100.00,North,2,2.0,3.0,59,-99.99,,,-99.99,,2013-06-12 03:32:00,
2013-06-11 20:42:00,69.0,54.0,-100.00,East,93,3.0,5.0,59,-99.99,,,-99.99,,2013-06-12 03:42:00,
2013-06-11 20:53:00,69.0,54.0,-100.00,East,93,3.0,5.0,59,-99.99,,,-99.99,,2013-06-12 03:53:00,
2013-06-11 21:02:00,67.0,54.0,-100.00,SE,129,6.0,7.0,62,-99.99,,,-99.99,,2013-06-12 04:02:00,
2013-06-11 21:12:00,67.0,54.0,-100.00,SE,129,6.0,7.0,62,-99.99,,,-99.99,,2013-06-12 04:12:00,
2013-06-11 21:22:00,69.0,53.0,-100.00,ESE,123,4.0,6.0,56,-99.99,,,-99.99,,2013-06-12 04:22:00,
2013-06-11 21:33:00,69.0,53.0,-100.00,ESE,123,4.0,6.0,56,-99.99,,,-99.99,,2013-06-12 04:33:00,
2013-06-11 21:42:00,69.0,53.0,-100.00,ESE,123,4.0,6.0,56,-99.99,,,-99.99,,2013-06-12 04:42:00,
2013-06-11 21:52:00,68.0,52.0,-100.00,SE,133,5.0,6.0,57,-99.99,,,-99.99,,2013-06-12 04:52:00,
2013-06-11 22:02:00,68.0,49.0,-100.00,ESE,113,5.0,6.0,51,-99.99,,,-99.99,,2013-06-12 05:02:00,
2013-06-11 22:12:00,67.0,49.0,-100.00,ESE,119,5.0,6.0,52,-99.99,,,-99.99,,2013-06-12 05:12:00,
2013-06-11 22:22:00,67.0,46.0,-100.00,ESE,121,6.0,7.0,47,-99.99,,,-99.99,,2013-06-12 05:22:00,
2013-06-11 22:32:00,67.0,48.0,-100.00,SE,139,6.0,7.0,50,-99.99,,,-99.99,,2013-06-12 05:32:00,
2013-06-11 22:42:00,66.0,47.0,-100.00,SE,131,6.0,8.0,50,-99.99,,,-99.99,,2013-06-12 05:42:00,
2013-06-11 22:52:00,67.0,45.0,-100.00,ESE,121,6.0,7.0,45,-99.99,,,-99.99,,2013-06-12 05:52:00,
2013-06-11 23:02:00,66.0,43.0,-100.00,ESE,118,6.0,7.0,43,-99.99,,,-99.99,,2013-06-12 06:02:00,
2013-06-11 23:12:00,66.0,43.0,-100.00,SE,125,6.0,7.0,44,-99.99,,,-99.99,,2013-06-12 06:12:00,
2013-06-11 23:21:00,65.0,43.0,-100.00,SE,128,6.0,8.0,45,-99.99,,,-99.99,,2013-06-12 06:21:00,
2013-06-11 23:32:00,65.0,43.0,-100.00,SE,128,6.0,8.0,45,-99.99,,,-99.99,,2013-06-12 06:32:00,
2013-06-11 23:42:00,65.0,43.0,-100.00,SE,138,6.0,8.0,45,-99.99,,,-99.99,,2013-06-12 06:42:00,
2013-06-11 23:52:00,64.0,43.0,-100.00,SE,145,7.0,9.0,46,-99.99,,,-99.99,,2013-06-12 06:52:00,